Time;durP1;ratioP1;P1;durP2;ratioP2;P2;SDS_P1;SDS_P2;PMS_P1;PMS_P2;Temp;Humidity;BMP_temperature;BMP_pressure;BME280_temperature;BME280_humidity;BME280_pressure;Samples;Min_cycle;Max_cycle;Signal;HPM_P1;HPM_P2
2022/06/18 00:02:18;;;;;;;3.88;2.30;;;;;;;;;;4997996;28;20281;-65
2022/06/18 00:04:47;;;;;;;5.05;2.63;;;;;;;;;;4996924;28;20289;-65
2022/06/18 00:07:16;;;;;;;2.90;2.15;;;;;;;;;;4997302;28;20194;-65
2022/06/18 00:09:45;;;;;;;6.32;2.35;;;;;;;;;;4998034;28;20197;-65
2022/06/18 00:14:57;;;;;;;4.55;2.40;;;;;;;;;;4997767;28;20301;-65
2022/06/18 00:17:22;;;;;;;6.53;2.97;;;;;;;;;;4998264;28;20203;-65
2022/06/18 00:19:51;;;;;;;3.88;2.47;;;;;;;;;;4996767;28;20175;-65
2022/06/18 00:22:20;;;;;;;3.65;2.55;;;;;;;;;;4998863;28;20198;-64
2022/06/18 00:24:46;;;;;;;6.53;2.40;;;;;;;;;;4997850;28;20637;-65
2022/06/18 00:27:16;;;;;;;6.07;2.90;;;;;;;;;;4997388;28;20234;-65
2022/06/18 00:29:42;;;;;;;4.45;2.85;;;;;;;;;;4998750;28;20325;-65
2022/06/18 00:32:08;;;;;;;4.18;2.83;;;;;;;;;;4997034;28;20289;-65
2022/06/18 00:34:35;;;;;;;3.80;2.55;;;;;;;;;;4996375;28;20752;-65
2022/06/18 00:37:00;;;;;;;6.00;3.30;;;;;;;;;;4995846;28;20579;-65
2022/06/18 00:39:28;;;;;;;4.35;2.97;;;;;;;;;;4999372;28;20222;-65
2022/06/18 00:41:53;;;;;;;3.53;2.88;;;;;;;;;;4996341;28;20214;-64
2022/06/18 00:44:31;;;;;;;4.45;2.97;;;;;;;;;;4998042;28;20194;-66
2022/06/18 00:47:03;;;;;;;7.20;3.03;;;;;;;;;;4997365;28;20218;-65
2022/06/18 00:49:45;;;;;;;4.88;3.10;;;;;;;;;;4998404;28;20183;-65
2022/06/18 00:52:21;;;;;;;7.28;3.05;;;;;;;;;;4996458;28;20757;-65
2022/06/18 00:54:55;;;;;;;5.70;2.95;;;;;;;;;;4998550;28;20198;-66
2022/06/18 00:57:31;;;;;;;4.22;3.00;;;;;;;;;;4998942;28;20654;-65
2022/06/18 01:00:06;;;;;;;4.18;2.80;;;;;;;;;;4995386;28;20488;-65
2022/06/18 01:02:38;;;;;;;3.25;2.50;;;;;;;;;;4996971;28;20196;-66
2022/06/18 01:05:20;;;;;;;3.17;2.88;;;;;;;;;;4996684;28;20769;-65
2022/06/18 01:07:51;;;;;;;6.60;2.90;;;;;;;;;;4997314;28;20517;-65
2022/06/18 01:10:21;;;;;;;6.22;2.85;;;;;;;;;;4998340;28;20775;-65
2022/06/18 01:12:47;;;;;;;5.50;2.90;;;;;;;;;;4995230;28;20194;-65
2022/06/18 01:15:13;;;;;;;3.47;2.55;;;;;;;;;;4994449;28;20195;-65
2022/06/18 01:17:40;;;;;;;3.85;2.88;;;;;;;;;;4998982;28;20721;-65
2022/06/18 01:20:09;;;;;;;2.53;2.33;;;;;;;;;;4998558;28;20267;-65
2022/06/18 01:23:03;;;;;;;3.75;2.80;;;;;;;;;;4996972;28;20191;-65
2022/06/18 01:25:30;;;;;;;2.63;2.42;;;;;;;;;;4997439;28;20295;-65
2022/06/18 01:27:56;;;;;;;3.08;2.67;;;;;;;;;;4997086;28;20280;-65
2022/06/18 01:30:25;;;;;;;3.60;2.70;;;;;;;;;;4998359;28;20187;-65
2022/06/18 01:32:54;;;;;;;5.25;2.80;;;;;;;;;;4995551;28;20252;-66
2022/06/18 01:35:21;;;;;;;5.35;2.85;;;;;;;;;;4996604;28;20189;-66
2022/06/18 01:37:47;;;;;;;4.80;3.50;;;;;;;;;;4995111;28;20210;-66
2022/06/18 01:40:17;;;;;;;7.05;3.47;;;;;;;;;;4996458;28;20752;-66
2022/06/18 01:42:46;;;;;;;5.22;3.30;;;;;;;;;;4995208;28;20180;-65
2022/06/18 01:45:19;;;;;;;7.22;3.33;;;;;;;;;;5001355;28;20202;-65
2022/06/18 01:47:50;;;;;;;5.97;3.00;;;;;;;;;;5001863;28;20695;-65
2022/06/18 01:50:23;;;;;;;4.45;3.28;;;;;;;;;;5001101;28;20183;-66
2022/06/18 01:52:59;;;;;;;6.47;2.95;;;;;;;;;;4999824;28;20630;-65
2022/06/18 01:55:28;;;;;;;5.85;3.00;;;;;;;;;;5000117;28;20526;-65
2022/06/18 01:57:59;;;;;;;4.28;2.90;;;;;;;;;;4999465;28;20215;-65
2022/06/18 02:00:27;;;;;;;6.63;3.20;;;;;;;;;;5002238;28;20194;-65
2022/06/18 02:02:53;;;;;;;4.85;3.28;;;;;;;;;;4999651;28;20206;-64
2022/06/18 02:05:21;;;;;;;6.00;3.40;;;;;;;;;;5001201;28;20187;-65
2022/06/18 02:07:47;;;;;;;7.85;3.25;;;;;;;;;;5000569;28;20194;-64
2022/06/18 02:10:38;;;;;;;6.35;3.40;;;;;;;;;;5001041;28;20221;-65
2022/06/18 02:13:05;;;;;;;10.38;3.50;;;;;;;;;;4999857;28;20213;-65
2022/06/18 02:15:40;;;;;;;8.25;3.33;;;;;;;;;;5000905;28;20192;-65
2022/06/18 02:18:09;;;;;;;6.32;4.07;;;;;;;;;;4997008;28;20308;-65
2022/06/18 02:20:39;;;;;;;7.30;3.80;;;;;;;;;;5000444;28;20218;-65
2022/06/18 02:23:05;;;;;;;6.10;3.60;;;;;;;;;;5001577;28;20183;-65
2022/06/18 02:25:31;;;;;;;6.15;3.95;;;;;;;;;;5000513;28;20202;-65
2022/06/18 02:28:15;;;;;;;5.65;3.50;;;;;;;;;;4981593;28;20250;-64
2022/06/18 02:30:41;;;;;;;5.80;3.92;;;;;;;;;;5001238;28;20638;-64
2022/06/18 02:33:34;;;;;;;9.20;3.63;;;;;;;;;;4999016;28;20226;-65
2022/06/18 02:36:09;;;;;;;4.60;3.63;;;;;;;;;;5000234;28;20197;-65
2022/06/18 02:38:34;;;;;;;7.68;3.50;;;;;;;;;;4999702;28;20210;-64
2022/06/18 02:41:00;;;;;;;5.90;4.05;;;;;;;;;;5002436;28;20226;-66
2022/06/18 02:43:25;;;;;;;5.28;4.10;;;;;;;;;;5001290;28;20183;-65
2022/06/18 02:45:53;;;;;;;5.97;4.00;;;;;;;;;;5000677;28;20198;-65
2022/06/18 02:48:23;;;;;;;7.25;3.92;;;;;;;;;;5001297;28;20645;-65
2022/06/18 02:50:49;;;;;;;11.75;4.20;;;;;;;;;;5000708;28;20662;-65
2022/06/18 02:53:14;;;;;;;6.07;4.38;;;;;;;;;;5000432;28;20182;-65
2022/06/18 02:55:43;;;;;;;4.75;3.85;;;;;;;;;;4998537;28;20404;-65
2022/06/18 02:58:12;;;;;;;7.90;4.47;;;;;;;;;;4997162;28;20233;-66
2022/06/18 03:00:39;;;;;;;8.88;4.18;;;;;;;;;;4999248;28;20577;-65
2022/06/18 03:03:08;;;;;;;6.50;3.65;;;;;;;;;;4998205;28;20211;-65
2022/06/18 03:05:33;;;;;;;4.97;3.95;;;;;;;;;;4998598;28;20191;-65
2022/06/18 03:07:59;;;;;;;8.38;4.72;;;;;;;;;;4998126;28;20666;-65
2022/06/18 03:13:09;;;;;;;8.43;5.00;;;;;;;;;;5000599;28;20252;-66
2022/06/18 03:15:35;;;;;;;7.65;4.65;;;;;;;;;;4998194;28;20604;-66
2022/06/18 03:18:02;;;;;;;7.03;4.80;;;;;;;;;;4999505;28;20222;-65
2022/06/18 03:20:59;;;;;;;8.75;5.30;;;;;;;;;;4999294;28;20541;-65
2022/06/18 03:23:26;;;;;;;5.72;4.63;;;;;;;;;;4976689;28;20210;-65
2022/06/18 03:25:52;;;;;;;8.30;4.75;;;;;;;;;;4997174;28;20203;-65
2022/06/18 03:28:20;;;;;;;8.55;4.60;;;;;;;;;;5000841;28;20187;-65
2022/06/18 03:30:45;;;;;;;9.85;5.00;;;;;;;;;;4997291;28;20194;-65
2022/06/18 03:33:12;;;;;;;7.70;5.28;;;;;;;;;;4998525;28;20690;-65
2022/06/18 03:35:39;;;;;;;6.90;4.95;;;;;;;;;;4999999;28;20187;-65
2022/06/18 03:38:05;;;;;;;5.93;4.72;;;;;;;;;;5001212;28;20222;-66
2022/06/18 03:40:30;;;;;;;7.10;5.43;;;;;;;;;;4997592;28;20596;-66
2022/06/18 03:42:56;;;;;;;9.88;6.00;;;;;;;;;;4997085;28;20205;-66
2022/06/18 03:45:21;;;;;;;8.18;5.00;;;;;;;;;;4997371;28;20269;-64
2022/06/18 03:47:48;;;;;;;7.05;5.78;;;;;;;;;;4997485;28;20845;-65
2022/06/18 03:50:16;;;;;;;8.45;5.20;;;;;;;;;;4997378;28;20186;-65
2022/06/18 03:52:41;;;;;;;8.52;5.63;;;;;;;;;;4997234;28;20186;-66
2022/06/18 03:55:07;;;;;;;9.10;5.30;;;;;;;;;;4999211;28;20185;-65
2022/06/18 03:57:32;;;;;;;7.53;5.70;;;;;;;;;;4999988;28;20237;-66
2022/06/18 03:59:59;;;;;;;9.48;6.20;;;;;;;;;;4996530;28;20641;-64
2022/06/18 04:02:24;;;;;;;8.15;5.53;;;;;;;;;;4998503;28;20289;-65
2022/06/18 04:04:49;;;;;;;12.90;6.03;;;;;;;;;;4997453;28;20293;-65
2022/06/18 04:07:19;;;;;;;7.97;5.75;;;;;;;;;;4997392;28;20186;-66
2022/06/18 04:09:45;;;;;;;8.90;6.00;;;;;;;;;;4997424;28;20685;-65
2022/06/18 04:12:11;;;;;;;8.18;5.97;;;;;;;;;;4999866;28;20274;-66
2022/06/18 04:14:37;;;;;;;10.30;6.30;;;;;;;;;;4996924;28;20305;-66
2022/06/18 04:17:02;;;;;;;10.00;7.13;;;;;;;;;;4998131;28;20269;-65
2022/06/18 04:19:28;;;;;;;11.23;7.63;;;;;;;;;;4995912;28;20213;-65
2022/06/18 04:21:54;;;;;;;13.32;7.45;;;;;;;;;;4997166;28;20198;-65
2022/06/18 04:24:20;;;;;;;10.77;7.32;;;;;;;;;;4996988;28;20249;-66
2022/06/18 04:26:45;;;;;;;15.43;7.38;;;;;;;;;;4997530;28;20257;-66
2022/06/18 04:29:10;;;;;;;10.95;7.88;;;;;;;;;;4998041;28;20520;-65
2022/06/18 04:31:36;;;;;;;11.15;7.55;;;;;;;;;;4997540;28;20233;-66
2022/06/18 04:34:01;;;;;;;11.82;7.63;;;;;;;;;;4996057;28;20182;-65
2022/06/18 04:36:36;;;;;;;10.48;6.13;;;;;;;;;;4998115;28;21064;-65
2022/06/18 04:39:02;;;;;;;10.55;7.05;;;;;;;;;;4997654;28;20215;-66
2022/06/18 04:41:28;;;;;;;7.97;6.20;;;;;;;;;;4998083;28;20197;-65
2022/06/18 04:43:53;;;;;;;8.77;6.63;;;;;;;;;;4996631;28;20268;-64
2022/06/18 04:46:22;;;;;;;11.05;6.88;;;;;;;;;;4997452;28;20539;-66
2022/06/18 04:48:47;;;;;;;7.55;6.07;;;;;;;;;;4995607;28;20185;-66
2022/06/18 04:51:13;;;;;;;8.63;5.78;;;;;;;;;;4996896;28;20194;-66
2022/06/18 04:53:38;;;;;;;9.57;6.45;;;;;;;;;;4996990;28;20190;-66
2022/06/18 04:56:04;;;;;;;12.73;7.40;;;;;;;;;;4996322;28;20333;-66
2022/06/18 04:58:30;;;;;;;12.13;6.85;;;;;;;;;;4998142;28;20210;-66
2022/06/18 05:00:56;;;;;;;9.73;6.72;;;;;;;;;;4995435;28;20182;-65
2022/06/18 05:03:21;;;;;;;10.40;7.07;;;;;;;;;;4996008;28;20910;-65
2022/06/18 05:05:47;;;;;;;9.98;6.88;;;;;;;;;;4995709;28;20178;-65
2022/06/18 05:08:13;;;;;;;11.48;7.07;;;;;;;;;;4996615;28;20666;-66
2022/06/18 05:10:38;;;;;;;14.93;7.93;;;;;;;;;;4997142;28;20225;-65
2022/06/18 05:13:06;;;;;;;11.00;7.45;;;;;;;;;;4997305;28;20190;-66
2022/06/18 05:15:31;;;;;;;11.10;7.15;;;;;;;;;;4997672;28;20313;-65
2022/06/18 05:17:58;;;;;;;10.55;7.97;;;;;;;;;;4997702;28;20758;-66
2022/06/18 05:20:24;;;;;;;13.57;7.07;;;;;;;;;;4999036;28;20191;-65
2022/06/18 05:22:50;;;;;;;10.10;7.25;;;;;;;;;;4998917;28;20237;-65
2022/06/18 05:25:17;;;;;;;12.68;6.70;;;;;;;;;;5000791;28;20175;-66
2022/06/18 05:27:44;;;;;;;14.70;7.43;;;;;;;;;;4999288;28;20227;-65
2022/06/18 05:30:14;;;;;;;8.68;6.80;;;;;;;;;;4999757;28;20453;-66
2022/06/18 05:32:40;;;;;;;10.90;6.40;;;;;;;;;;4998796;28;20252;-66
2022/06/18 05:35:06;;;;;;;11.63;6.50;;;;;;;;;;4999916;28;20193;-65
2022/06/18 05:37:32;;;;;;;12.80;7.53;;;;;;;;;;4999764;28;20198;-66
2022/06/18 05:39:58;;;;;;;11.70;7.22;;;;;;;;;;4998128;28;20222;-66
2022/06/18 05:42:23;;;;;;;13.88;7.43;;;;;;;;;;4998506;28;20221;-66
2022/06/18 05:44:49;;;;;;;13.35;6.47;;;;;;;;;;4997513;28;20764;-67
2022/06/18 05:47:19;;;;;;;7.95;6.72;;;;;;;;;;4996806;28;20681;-64
2022/06/18 05:49:44;;;;;;;14.10;7.53;;;;;;;;;;4996891;28;20252;-66
2022/06/18 05:52:10;;;;;;;12.90;6.57;;;;;;;;;;4998890;28;20190;-66
2022/06/18 05:54:35;;;;;;;15.88;7.55;;;;;;;;;;4997280;28;20182;-65
2022/06/18 05:57:01;;;;;;;10.60;6.25;;;;;;;;;;4997751;28;20186;-66
2022/06/18 05:59:26;;;;;;;9.90;6.55;;;;;;;;;;4999521;28;20203;-65
2022/06/18 06:01:56;;;;;;;10.77;6.75;;;;;;;;;;4997843;28;20655;-66
2022/06/18 06:04:25;;;;;;;14.25;6.63;;;;;;;;;;4999909;28;20191;-66
2022/06/18 06:06:51;;;;;;;13.07;6.60;;;;;;;;;;4997582;28;20187;-65
2022/06/18 06:11:28;;;;;;;13.45;7.03;;;;;;;;;;4307120;28;10000852;-65
2022/06/18 06:12:05;;;;;;;12.75;7.05;;;;;;;;;;4997771;28;20186;-67
2022/06/18 06:14:30;;;;;;;13.65;7.57;;;;;;;;;;4998328;28;20186;-65
2022/06/18 06:16:57;;;;;;;9.63;7.20;;;;;;;;;;4998054;28;20229;-66
2022/06/18 06:19:23;;;;;;;12.75;6.80;;;;;;;;;;4988444;28;20210;-65
2022/06/18 06:21:49;;;;;;;14.68;7.13;;;;;;;;;;4994265;28;20182;-65
2022/06/18 06:24:14;;;;;;;12.85;6.70;;;;;;;;;;4996214;28;20617;-65
2022/06/18 06:26:39;;;;;;;11.23;7.07;;;;;;;;;;4996587;28;20626;-66
2022/06/18 06:29:05;;;;;;;12.38;6.85;;;;;;;;;;4994900;28;20730;-66
2022/06/18 06:31:31;;;;;;;11.25;6.85;;;;;;;;;;4994779;28;20670;-65
2022/06/18 06:33:56;;;;;;;14.80;6.78;;;;;;;;;;4993641;28;20190;-65
2022/06/18 06:36:22;;;;;;;11.48;6.70;;;;;;;;;;4996350;28;20194;-66
2022/06/18 06:38:47;;;;;;;13.55;6.60;;;;;;;;;;4995876;28;20198;-66
2022/06/18 06:41:22;;;;;;;12.70;7.57;;;;;;;;;;4992111;28;20183;-67
2022/06/18 06:43:48;;;;;;;10.27;6.82;;;;;;;;;;4994094;28;20249;-66
2022/06/18 06:46:17;;;;;;;16.35;7.10;;;;;;;;;;4993111;28;20191;-66
2022/06/18 06:48:43;;;;;;;10.65;6.68;;;;;;;;;;4995266;28;20179;-65
2022/06/18 06:51:13;;;;;;;12.90;7.07;;;;;;;;;;4994940;28;20286;-65
2022/06/18 06:53:39;;;;;;;10.95;7.25;;;;;;;;;;4996031;28;20554;-65
2022/06/18 06:58:49;;;;;;;13.52;7.13;;;;;;;;;;4993176;28;20249;-64
2022/06/18 07:01:15;;;;;;;11.23;7.15;;;;;;;;;;4995716;28;20935;-64
2022/06/18 07:03:40;;;;;;;16.42;7.45;;;;;;;;;;4992556;28;20195;-65
2022/06/18 07:06:05;;;;;;;8.57;7.45;;;;;;;;;;4995526;28;20281;-64
2022/06/18 07:08:31;;;;;;;10.48;7.35;;;;;;;;;;4995501;28;20187;-64
2022/06/18 07:10:57;;;;;;;13.07;7.07;;;;;;;;;;4994832;28;20596;-64
2022/06/18 07:13:22;;;;;;;11.93;8.35;;;;;;;;;;4996425;28;20194;-64
2022/06/18 07:15:49;;;;;;;11.77;7.57;;;;;;;;;;4995584;28;20597;-66
2022/06/18 07:18:18;;;;;;;14.38;7.70;;;;;;;;;;4995684;28;20219;-65
2022/06/18 07:20:44;;;;;;;17.85;7.28;;;;;;;;;;4998381;28;20191;-65
2022/06/18 07:23:10;;;;;;;14.10;7.72;;;;;;;;;;4997522;28;21246;-66
2022/06/18 07:25:35;;;;;;;15.45;8.20;;;;;;;;;;4999209;28;20879;-66
2022/06/18 07:28:01;;;;;;;11.77;7.63;;;;;;;;;;4997689;28;20653;-66
2022/06/18 07:30:27;;;;;;;11.82;7.72;;;;;;;;;;4995179;28;20227;-66
2022/06/18 07:32:52;;;;;;;14.40;7.57;;;;;;;;;;4995497;28;20269;-66
2022/06/18 07:35:21;;;;;;;15.10;7.18;;;;;;;;;;4995990;28;20195;-64
2022/06/18 07:37:47;;;;;;;13.93;7.55;;;;;;;;;;4996192;28;20221;-66
2022/06/18 07:40:13;;;;;;;12.50;7.93;;;;;;;;;;4995517;28;20187;-66
2022/06/18 07:42:38;;;;;;;12.63;7.65;;;;;;;;;;4994443;28;20774;-65
2022/06/18 07:45:05;;;;;;;13.07;7.55;;;;;;;;;;4995903;28;20183;-64
2022/06/18 07:47:30;;;;;;;14.60;7.60;;;;;;;;;;4997454;28;20500;-65
2022/06/18 07:49:56;;;;;;;11.50;6.93;;;;;;;;;;4995158;28;20189;-66
2022/06/18 07:52:21;;;;;;;12.95;7.25;;;;;;;;;;4999059;28;20191;-65
2022/06/18 07:54:46;;;;;;;13.10;7.70;;;;;;;;;;4993549;28;20193;-65
2022/06/18 07:57:12;;;;;;;10.70;8.02;;;;;;;;;;4995708;28;20237;-65
2022/06/18 07:59:38;;;;;;;11.80;7.43;;;;;;;;;;4994209;28;20228;-65
2022/06/18 08:02:04;;;;;;;16.88;7.38;;;;;;;;;;4996053;28;20194;-65
2022/06/18 08:04:29;;;;;;;14.90;8.07;;;;;;;;;;4995352;28;20193;-66
2022/06/18 08:06:55;;;;;;;14.15;8.63;;;;;;;;;;4995507;28;20891;-65
2022/06/18 08:09:20;;;;;;;14.02;7.88;;;;;;;;;;5012580;28;20193;-65
2022/06/18 08:11:46;;;;;;;14.85;8.65;;;;;;;;;;4993052;28;20319;-66
2022/06/18 08:14:12;;;;;;;16.27;8.07;;;;;;;;;;4995983;28;20221;-66
2022/06/18 08:16:37;;;;;;;14.90;7.57;;;;;;;;;;4995625;28;20186;-65
2022/06/18 08:19:03;;;;;;;15.52;7.88;;;;;;;;;;4994773;28;20215;-66
2022/06/18 08:21:34;;;;;;;14.48;8.38;;;;;;;;;;4997422;28;20632;-66
2022/06/18 08:24:06;;;;;;;13.88;7.82;;;;;;;;;;4997274;28;20257;-65
2022/06/18 08:26:34;;;;;;;11.95;7.72;;;;;;;;;;4996633;28;20426;-66
2022/06/18 08:29:01;;;;;;;12.95;7.88;;;;;;;;;;4998166;28;20601;-65
2022/06/18 08:31:27;;;;;;;14.02;8.40;;;;;;;;;;4995910;28;20205;-66
2022/06/18 08:33:53;;;;;;;16.25;8.00;;;;;;;;;;4996331;28;20732;-65
2022/06/18 08:36:18;;;;;;;16.38;7.18;;;;;;;;;;4995686;28;20260;-65
2022/06/18 08:38:46;;;;;;;16.08;7.95;;;;;;;;;;4993929;28;20663;-65
2022/06/18 08:41:33;;;;;;;19.88;7.13;;;;;;;;;;4993674;28;20193;-65
2022/06/18 08:44:20;;;;;;;11.00;7.00;;;;;;;;;;4995644;28;20185;-66
2022/06/18 08:46:57;;;;;;;16.73;7.25;;;;;;;;;;4996166;28;21373;-66
2022/06/18 08:49:51;;;;;;;12.25;6.97;;;;;;;;;;4996214;28;20198;-66
2022/06/18 08:52:34;;;;;;;14.57;7.47;;;;;;;;;;4995139;28;20194;-67
2022/06/18 08:55:11;;;;;;;15.75;7.40;;;;;;;;;;4994960;28;20623;-67
2022/06/18 08:58:14;;;;;;;17.38;7.25;;;;;;;;;;4994837;28;20559;-69
2022/06/18 09:00:51;;;;;;;9.10;5.03;;;;;;;;;;4994074;28;20292;-67
2022/06/18 09:04:00;;;;;;;14.27;6.63;;;;;;;;;;4995168;28;20202;-68
2022/06/18 09:06:47;;;;;;;10.82;5.13;;;;;;;;;;4995689;28;20543;-68
2022/06/18 09:09:35;;;;;;;11.40;4.95;;;;;;;;;;5010190;28;20195;-66
2022/06/18 09:12:22;;;;;;;13.27;5.68;;;;;;;;;;5011919;28;20586;-67
2022/06/18 09:14:57;;;;;;;7.97;4.85;;;;;;;;;;4996348;28;20218;-67
2022/06/18 09:17:29;;;;;;;8.80;4.18;;;;;;;;;;4999090;28;20209;-67
2022/06/18 09:20:21;;;;;;;17.60;7.03;;;;;;;;;;5010815;28;20179;-67
2022/06/18 09:22:52;;;;;;;14.00;7.68;;;;;;;;;;4997285;28;20182;-68
2022/06/18 09:25:22;;;;;;;14.35;6.35;;;;;;;;;;4995258;28;20277;-69
2022/06/18 09:27:58;;;;;;;13.73;5.78;;;;;;;;;;4997161;28;20226;-69
2022/06/18 09:30:40;;;;;;;17.13;5.45;;;;;;;;;;4996869;28;20569;-68
2022/06/18 09:33:21;;;;;;;11.93;6.45;;;;;;;;;;4995862;28;20178;-67
2022/06/18 09:36:01;;;;;;;9.27;5.13;;;;;;;;;;4994899;28;20195;-71
2022/06/18 09:38:41;;;;;;;8.45;5.25;;;;;;;;;;4995237;28;20726;-67
2022/06/18 09:41:13;;;;;;;7.97;5.30;;;;;;;;;;4997216;28;20198;-67
2022/06/18 09:43:57;;;;;;;10.68;6.15;;;;;;;;;;4996797;28;20296;-67
2022/06/18 09:46:40;;;;;;;11.98;5.07;;;;;;;;;;4992447;28;20286;-66
2022/06/18 09:49:06;;;;;;;12.75;5.18;;;;;;;;;;4995105;28;20218;-67
2022/06/18 09:52:03;;;;;;;16.52;4.60;;;;;;;;;;4993865;28;20194;-67
2022/06/18 09:54:34;;;;;;;14.27;4.80;;;;;;;;;;4995204;28;20197;-69
2022/06/18 09:57:01;;;;;;;8.35;4.10;;;;;;;;;;5011367;28;20186;-67
2022/06/18 09:59:41;;;;;;;14.68;5.28;;;;;;;;;;4995728;28;20222;-69
2022/06/18 10:02:18;;;;;;;8.50;4.68;;;;;;;;;;4995361;28;20705;-71
2022/06/18 10:07:32;;;;;;;15.10;6.57;;;;;;;;;;4999685;28;20241;-70
2022/06/18 10:10:07;;;;;;;17.25;7.38;;;;;;;;;;5001337;28;20601;-66
2022/06/18 10:12:36;;;;;;;11.23;6.05;;;;;;;;;;4999500;28;20182;-70
2022/06/18 10:15:05;;;;;;;14.35;5.43;;;;;;;;;;4999645;28;20179;-68
2022/06/18 10:18:03;;;;;;;11.45;4.90;;;;;;;;;;4999280;28;20171;-70
2022/06/18 10:20:41;;;;;;;12.85;4.78;;;;;;;;;;4962905;28;20199;-70
2022/06/18 10:23:18;;;;;;;10.30;4.45;;;;;;;;;;4999972;28;20186;-69
2022/06/18 10:26:08;;;;;;;11.40;3.85;;;;;;;;;;4997036;28;20201;-69
2022/06/18 10:28:55;;;;;;;13.52;4.78;;;;;;;;;;4998651;28;20245;-68
2022/06/18 10:31:38;;;;;;;10.88;4.60;;;;;;;;;;4999927;28;20207;-71
2022/06/18 10:34:28;;;;;;;15.13;4.72;;;;;;;;;;4999663;28;20607;-69
2022/06/18 10:37:07;;;;;;;15.05;4.97;;;;;;;;;;5000922;28;20262;-69
2022/06/18 10:39:35;;;;;;;12.45;4.20;;;;;;;;;;5001880;28;20285;-72
2022/06/18 10:42:41;;;;;;;14.55;4.10;;;;;;;;;;5001573;28;20190;-71
2022/06/18 10:45:27;;;;;;;10.30;4.25;;;;;;;;;;4979060;28;20302;-71
2022/06/18 10:47:53;;;;;;;26.20;8.25;;;;;;;;;;5014119;28;20182;-72
2022/06/18 10:50:21;;;;;;;12.25;4.22;;;;;;;;;;4999383;28;20193;-66
2022/06/18 10:53:09;;;;;;;9.40;4.22;;;;;;;;;;4997492;28;21126;-67
2022/06/18 10:55:34;;;;;;;9.35;4.28;;;;;;;;;;4999077;28;20631;-70
2022/06/18 10:58:10;;;;;;;13.65;4.78;;;;;;;;;;5029770;28;20337;-67
2022/06/18 11:00:36;;;;;;;8.35;4.05;;;;;;;;;;4997391;28;20667;-68
2022/06/18 11:03:15;;;;;;;14.02;4.45;;;;;;;;;;4995696;28;20512;-68
2022/06/18 11:05:44;;;;;;;10.57;4.20;;;;;;;;;;4996521;28;20244;-67
2022/06/18 11:08:29;;;;;;;9.48;4.07;;;;;;;;;;4995813;28;20174;-67
2022/06/18 11:10:58;;;;;;;11.90;4.22;;;;;;;;;;4996391;28;20244;-67
2022/06/18 11:13:39;;;;;;;11.88;4.60;;;;;;;;;;4995048;28;20195;-68
2022/06/18 11:16:16;;;;;;;17.40;5.50;;;;;;;;;;4997349;28;20300;-69
2022/06/18 11:18:44;;;;;;;9.43;3.53;;;;;;;;;;4997295;28;20668;-68
2022/06/18 11:21:32;;;;;;;11.75;3.90;;;;;;;;;;4999150;28;20240;-68
2022/06/18 11:24:12;;;;;;;12.95;4.60;;;;;;;;;;4999758;28;20187;-69
2022/06/18 11:26:49;;;;;;;12.63;4.18;;;;;;;;;;4997716;28;20679;-70
2022/06/18 11:29:31;;;;;;;10.98;4.20;;;;;;;;;;4996665;28;20216;-71
2022/06/18 11:32:00;;;;;;;8.95;3.70;;;;;;;;;;4997612;28;20285;-67
2022/06/18 11:34:29;;;;;;;8.85;3.63;;;;;;;;;;4997618;28;20537;-67
2022/06/18 11:36:57;;;;;;;9.57;4.10;;;;;;;;;;4995928;28;20190;-67
2022/06/18 11:39:38;;;;;;;8.93;3.88;;;;;;;;;;4997502;28;20375;-70
2022/06/18 11:42:23;;;;;;;10.93;4.40;;;;;;;;;;4998582;28;20269;-66
2022/06/18 11:44:56;;;;;;;13.65;3.90;;;;;;;;;;4997651;28;20193;-69
2022/06/18 11:47:37;;;;;;;11.13;3.83;;;;;;;;;;4998991;28;20199;-67
2022/06/18 11:50:42;;;;;;;17.38;4.25;;;;;;;;;;4998931;28;20237;-69
2022/06/18 11:53:41;;;;;;;10.52;3.72;;;;;;;;;;4995700;28;20203;-67
2022/06/18 11:56:26;;;;;;;15.07;3.97;;;;;;;;;;4992818;28;20266;-66
2022/06/18 11:58:57;;;;;;;8.98;3.33;;;;;;;;;;4996153;28;20241;-65
2022/06/18 12:01:32;;;;;;;10.88;4.10;;;;;;;;;;4997839;28;20182;-66
2022/06/18 12:04:21;;;;;;;9.32;3.53;;;;;;;;;;4998689;28;20189;-67
2022/06/18 12:07:22;;;;;;;11.75;4.30;;;;;;;;;;4998905;28;20201;-65
2022/06/18 12:09:48;;;;;;;9.45;4.00;;;;;;;;;;4968397;28;20206;-67
2022/06/18 12:12:39;;;;;;;15.48;3.83;;;;;;;;;;4996382;28;20205;-68
2022/06/18 12:15:19;;;;;;;12.50;3.80;;;;;;;;;;4994920;28;20185;-66
2022/06/18 12:17:49;;;;;;;11.70;3.70;;;;;;;;;;4996779;28;20649;-67
2022/06/18 12:20:35;;;;;;;8.85;3.70;;;;;;;;;;4996132;28;20210;-65
2022/06/18 12:23:10;;;;;;;9.77;3.70;;;;;;;;;;4996523;28;20658;-64
2022/06/18 12:26:13;;;;;;;7.43;3.75;;;;;;;;;;4995595;28;20676;-64
2022/06/18 12:29:11;;;;;;;8.25;3.58;;;;;;;;;;4995639;28;20194;-64
2022/06/18 12:31:39;;;;;;;10.07;3.45;;;;;;;;;;4994965;28;20206;-66
2022/06/18 12:34:30;;;;;;;10.20;4.00;;;;;;;;;;4995884;28;20256;-64
2022/06/18 12:37:07;;;;;;;6.97;3.50;;;;;;;;;;4996247;28;20274;-66
2022/06/18 12:39:55;;;;;;;9.32;3.75;;;;;;;;;;4995931;28;20210;-68
2022/06/18 12:42:34;;;;;;;7.70;3.35;;;;;;;;;;4995046;28;20560;-66
2022/06/18 12:45:10;;;;;;;11.00;4.25;;;;;;;;;;4996281;28;20185;-66
2022/06/18 12:47:56;;;;;;;9.85;4.00;;;;;;;;;;4995235;28;20204;-67
2022/06/18 12:50:43;;;;;;;9.23;4.18;;;;;;;;;;4991994;28;20192;-69
2022/06/18 12:53:33;;;;;;;13.07;3.63;;;;;;;;;;4997546;28;21123;-71
2022/06/18 12:56:13;;;;;;;10.13;3.95;;;;;;;;;;4996863;28;20193;-69
2022/06/18 12:58:41;;;;;;;9.77;3.92;;;;;;;;;;4994006;28;20540;-69
2022/06/18 13:01:15;;;;;;;10.52;3.83;;;;;;;;;;4994528;28;20713;-67
2022/06/18 13:04:13;;;;;;;10.75;3.88;;;;;;;;;;4994344;28;20679;-67
2022/06/18 13:06:53;;;;;;;8.13;3.50;;;;;;;;;;4994190;28;20194;-69
2022/06/18 13:09:27;;;;;;;8.65;3.38;;;;;;;;;;4989322;28;20178;-67
2022/06/18 13:12:01;;;;;;;10.73;3.90;;;;;;;;;;4994238;28;20192;-67
2022/06/18 13:14:49;;;;;;;9.75;3.67;;;;;;;;;;4994991;28;20189;-67
2022/06/18 13:17:20;;;;;;;10.25;3.83;;;;;;;;;;4995613;28;20186;-67
2022/06/18 13:19:53;;;;;;;9.23;3.63;;;;;;;;;;4993562;28;20261;-69
2022/06/18 13:22:19;;;;;;;10.15;3.45;;;;;;;;;;4994135;28;20190;-68
2022/06/18 13:28:13;;;;;;;8.18;3.72;;;;;;;;;;5011712;28;20416;-71
2022/06/18 13:31:06;;;;;;;10.55;3.65;;;;;;;;;;5002161;28;20194;-70
2022/06/18 13:33:57;;;;;;;10.30;3.75;;;;;;;;;;5003529;28;20194;-70
2022/06/18 13:36:47;;;;;;;8.45;3.53;;;;;;;;;;5005663;28;20197;-71
2022/06/18 13:39:22;;;;;;;10.40;3.35;;;;;;;;;;4996046;28;20511;-68
2022/06/18 13:41:53;;;;;;;9.50;3.28;;;;;;;;;;5001914;28;20185;-72
2022/06/18 13:44:51;;;;;;;9.80;4.00;;;;;;;;;;5002038;28;20281;-71
2022/06/18 13:47:29;;;;;;;8.60;3.60;;;;;;;;;;4998949;28;20242;-69
2022/06/18 13:50:21;;;;;;;7.53;3.53;;;;;;;;;;4999416;28;20178;-69
2022/06/18 13:52:47;;;;;;;6.78;3.17;;;;;;;;;;4999547;28;20360;-71
2022/06/18 13:55:16;;;;;;;11.38;4.05;;;;;;;;;;5003669;28;20830;-72
2022/06/18 13:57:50;;;;;;;7.88;3.35;;;;;;;;;;5003684;28;20221;-71
2022/06/18 14:00:42;;;;;;;10.45;3.38;;;;;;;;;;5006213;28;20202;-71
2022/06/18 14:03:15;;;;;;;6.68;3.42;;;;;;;;;;5003540;28;20210;-69
2022/06/18 14:05:45;;;;;;;8.57;3.35;;;;;;;;;;5004083;28;20276;-70
2022/06/18 14:08:25;;;;;;;13.63;3.65;;;;;;;;;;5005211;28;20637;-71
2022/06/18 14:10:53;;;;;;;6.47;3.38;;;;;;;;;;5002248;28;20209;-64
2022/06/18 14:13:21;;;;;;;10.13;3.78;;;;;;;;;;5010172;28;20683;-71
2022/06/18 14:16:03;;;;;;;7.57;3.53;;;;;;;;;;5007023;28;20753;-72
2022/06/18 14:18:30;;;;;;;8.13;3.40;;;;;;;;;;5003962;28;21177;-71
2022/06/18 14:21:03;;;;;;;8.88;3.38;;;;;;;;;;5008795;28;20225;-70
2022/06/18 14:23:38;;;;;;;5.47;2.95;;;;;;;;;;5006176;28;20902;-70
2022/06/18 14:26:16;;;;;;;14.30;3.83;;;;;;;;;;5001021;28;20178;-70
2022/06/18 14:28:58;;;;;;;9.40;3.03;;;;;;;;;;4999569;28;20218;-72
2022/06/18 14:31:42;;;;;;;7.97;3.10;;;;;;;;;;5000827;28;20202;-65
2022/06/18 14:34:29;;;;;;;7.82;3.38;;;;;;;;;;5001723;28;20201;-71
2022/06/18 14:37:03;;;;;;;10.48;3.72;;;;;;;;;;5002088;28;20552;-70
2022/06/18 14:39:32;;;;;;;6.55;3.08;;;;;;;;;;5000826;28;20202;-70
2022/06/18 14:42:18;;;;;;;4.40;3.42;;;;;;;;;;5000821;28;20186;-69
2022/06/18 14:45:06;;;;;;;8.15;3.65;;;;;;;;;;5015338;28;20213;-66
2022/06/18 14:47:58;;;;;;;15.65;3.60;;;;;;;;;;4992865;28;20666;-71
2022/06/18 14:50:39;;;;;;;11.48;3.40;;;;;;;;;;5000544;28;20269;-71
2022/06/18 14:53:10;;;;;;;10.00;3.80;;;;;;;;;;5013957;28;20182;-67
2022/06/18 14:55:50;;;;;;;5.13;3.58;;;;;;;;;;5000497;28;20190;-70
2022/06/18 14:58:18;;;;;;;7.60;3.45;;;;;;;;;;4999387;28;20256;-70
2022/06/18 15:01:11;;;;;;;9.90;3.75;;;;;;;;;;5000048;28;20190;-70
2022/06/18 15:03:49;;;;;;;9.45;3.45;;;;;;;;;;5000064;28;20190;-69
2022/06/18 15:06:17;;;;;;;10.95;3.25;;;;;;;;;;5000827;28;20239;-70
2022/06/18 15:08:46;;;;;;;8.70;3.45;;;;;;;;;;4999168;28;20649;-70
2022/06/18 15:11:20;;;;;;;10.25;3.60;;;;;;;;;;4998850;28;20316;-71
2022/06/18 15:13:46;;;;;;;9.48;3.83;;;;;;;;;;5006356;28;20333;-68
2022/06/18 15:24:21;;;;;;;7.95;3.13;;;;;;;;;;4996957;28;20264;-71
2022/06/18 15:26:52;;;;;;;9.25;3.47;;;;;;;;;;4997401;28;20641;-70
2022/06/18 15:29:28;;;;;;;8.48;3.30;;;;;;;;;;5000480;28;20194;-71
2022/06/18 15:32:14;;;;;;;6.35;3.28;;;;;;;;;;5004753;28;20209;-71